Boneta, Utah
Current Conditions -  °F | °C
As of 8:35 PM on Monday 20 Oct 2014 (Local Time) from K36U Reporting Station
Scattered Clouds Scattered Clouds  
Wind Chill: 59°   Ceiling: Unl
Heat Index: 59°   Visibility: 10mi
Dew Point: 36°   Wind: 0mph
Humidity: 42%   Direction: NA
Pressure: 30.02"   Gusts: NA
Location:  40.391°N, 110.479°W
Report Text: K36U 210235Z AUTO 00000KT 10SM SCT095 15/02 A3002 RMK AO2
Loading
Personal Weather Stations






























Interactive Weather Map
Tropical Storm Tracking
New forecast layout! Learn more

10-Day Weather Forecast

Advertisements
Track Severe Weather on mobile